createdAt,value
2019-04-23T00:02:51.177Z,14.64
2019-04-23T00:08:04.575Z,14.67
2019-04-23T00:12:58.881Z,14.56
2019-04-23T00:18:12.453Z,14.47
2019-04-23T00:23:36.352Z,14.46
2019-04-23T00:28:33.468Z,14.37
2019-04-23T00:33:31.425Z,14.35
2019-04-23T00:38:38.714Z,14.34
2019-04-23T00:43:52.149Z,14.23
2019-04-23T00:48:59.208Z,14.19
2019-04-23T00:53:56.626Z,14.17
2019-04-23T00:59:08.368Z,14.16
2019-04-23T01:04:15.721Z,14.11
2019-04-23T01:09:24.182Z,14.10
2019-04-23T01:14:28.937Z,13.99
2019-04-23T01:19:50.336Z,13.94
2019-04-23T01:24:44.062Z,13.91
2019-04-23T01:30:14.821Z,13.87
2019-04-23T01:35:20.346Z,13.80
2019-04-23T01:40:31.972Z,13.78
2019-04-23T01:45:40.971Z,13.79
2019-04-23T01:50:52.227Z,13.70
2019-04-23T01:55:54.421Z,13.63
2019-04-23T02:01:03.311Z,13.60
2019-04-23T02:11:07.947Z,13.56
2019-04-23T02:16:19.180Z,13.64
2019-04-23T02:21:22.581Z,13.39
2019-04-23T02:26:37.190Z,13.40
2019-04-23T02:36:54.466Z,13.28
2019-04-23T02:42:07.303Z,13.28
2019-04-23T02:47:17.415Z,13.28
2019-04-23T02:52:16.091Z,13.22
2019-04-23T03:12:59.156Z,13.21
2019-04-23T03:28:47.118Z,13.27
2019-04-23T03:43:51.584Z,13.15
2019-04-23T03:49:09.634Z,13.14
2019-04-23T03:59:26.587Z,13.06
2019-04-23T04:14:44.645Z,12.95
2019-04-23T04:24:49.136Z,12.80
2019-04-23T04:30:01.252Z,12.82
2019-04-23T04:35:20.966Z,12.79
2019-04-23T04:40:24.141Z,12.78
2019-04-23T04:50:28.459Z,12.72
2019-04-23T04:55:55.674Z,12.66
2019-04-23T05:06:33.860Z,12.63
2019-04-23T05:11:24.132Z,12.64
2019-04-23T05:16:21.483Z,12.60
2019-04-23T05:21:26.785Z,12.64
2019-04-23T05:31:35.064Z,12.64
2019-04-23T05:36:45.726Z,12.67
2019-04-23T05:42:04.417Z,12.74
2019-04-23T05:46:59.911Z,12.74
2019-04-23T05:57:10.317Z,12.85
2019-04-23T06:02:20.375Z,12.89
2019-04-23T06:12:31.696Z,13.23
2019-04-23T06:17:38.102Z,13.33
2019-04-23T06:22:53.392Z,13.37
2019-04-23T06:33:11.592Z,13.51
2019-04-23T06:43:42.022Z,13.49
2019-04-23T06:48:44.936Z,13.55
2019-04-23T06:53:48.632Z,13.61
2019-04-23T06:59:00.823Z,13.74
2019-04-23T07:04:05.248Z,13.81
2019-04-23T07:14:12.558Z,13.97
2019-04-23T07:24:28.616Z,14.19
2019-04-23T07:29:38.985Z,14.35
2019-04-23T07:34:55.304Z,14.39
2019-04-23T07:40:31.257Z,14.56
2019-04-23T07:46:02.342Z,14.79
2019-04-23T07:51:03.720Z,14.90
2019-04-23T07:56:13.088Z,14.91
2019-04-23T08:01:25.163Z,14.95
2019-04-23T08:06:22.042Z,14.98
2019-04-23T08:11:42.344Z,15.02
2019-04-23T08:16:43.831Z,15.16
2019-04-23T08:22:06.670Z,15.30
2019-04-23T08:27:22.391Z,15.40
2019-04-23T08:32:24.245Z,15.54
2019-04-23T08:37:54.377Z,15.69
2019-04-23T08:48:17.324Z,15.89
2019-04-23T08:58:25.053Z,16.17
2019-04-23T09:18:53.049Z,16.85
2019-04-23T09:29:09.572Z,16.99
2019-04-23T09:34:22.340Z,17.16
2019-04-23T09:50:06.461Z,17.79
2019-04-23T09:55:15.889Z,18.01
2019-04-23T10:00:25.675Z,18.12
2019-04-23T10:05:12.565Z,18.39
2019-04-23T10:10:05.296Z,18.56
2019-04-23T10:15:18.565Z,18.78
2019-04-23T10:20:20.463Z,18.91
2019-04-23T10:25:27.879Z,19.15
2019-04-23T10:30:33.185Z,19.52
2019-04-23T10:35:49.199Z,19.83
2019-04-23T10:40:49.765Z,20.09
2019-04-23T10:46:42.968Z,20.36
2019-04-23T10:52:10.665Z,20.60
2019-04-23T10:57:07.386Z,20.97
2019-04-23T11:02:32.809Z,21.24
2019-04-23T11:13:10.602Z,21.46
2019-04-23T11:18:08.804Z,21.59
2019-04-23T11:23:23.623Z,21.38
2019-04-23T11:28:30.971Z,21.14
2019-04-23T11:33:40.198Z,21.37
2019-04-23T11:44:04.362Z,21.17
2019-04-23T11:49:00.911Z,21.48
2019-04-23T11:54:07.443Z,21.42
2019-04-23T11:59:05.886Z,21.39
2019-04-23T12:09:46.822Z,21.40
2019-04-23T12:14:46.288Z,21.41
2019-04-23T12:20:13.513Z,21.32
2019-04-23T12:35:21.445Z,21.36
2019-04-23T12:40:25.012Z,21.27
2019-04-23T12:45:30.166Z,21.56
2019-04-23T12:55:41.851Z,21.49
2019-04-23T13:00:44.299Z,21.46
2019-04-23T13:05:49.109Z,21.57
2019-04-23T13:11:21.837Z,21.13
2019-04-23T13:16:19.577Z,20.98
2019-04-23T13:21:45.320Z,20.87
2019-04-23T13:26:27.974Z,20.77
2019-04-23T13:31:29.282Z,20.71
2019-04-23T13:41:46.129Z,20.67
2019-04-23T13:47:00.871Z,20.75
2019-04-23T13:52:15.882Z,20.93
2019-04-23T13:57:37.068Z,21.28
2019-04-23T14:02:24.045Z,21.39
2019-04-23T14:07:25.174Z,21.62
2019-04-23T14:12:31.893Z,21.71
2019-04-23T14:27:57.775Z,21.83
2019-04-23T14:32:53.708Z,21.72
2019-04-23T14:38:19.944Z,21.62
2019-04-23T14:43:14.921Z,21.50
2019-04-23T14:48:17.563Z,21.58
2019-04-23T14:53:20.286Z,21.42
2019-04-23T14:58:42.773Z,21.56
2019-04-23T15:03:35.228Z,21.40
2019-04-23T15:08:44.592Z,21.26
2019-04-23T15:13:44.807Z,21.02
2019-04-23T15:24:30.588Z,20.51
2019-04-23T15:29:24.844Z,20.38
2019-04-23T15:34:57.932Z,20.26
2019-04-23T15:40:04.394Z,20.27
2019-04-23T15:45:09.334Z,20.24
2019-04-23T15:50:19.915Z,20.19
2019-04-23T15:55:12.402Z,20.01
2019-04-23T16:00:22.378Z,19.95
2019-04-23T16:05:12.402Z,19.91
2019-04-23T16:16:10.516Z,19.87
2019-04-23T16:21:20.437Z,19.85
2019-04-23T16:26:22.987Z,19.74
2019-04-23T16:31:52.099Z,19.60
2019-04-23T16:36:38.651Z,19.57
2019-04-23T16:46:56.241Z,19.24
2019-04-23T16:52:05.715Z,19.05
2019-04-23T16:57:26.325Z,18.96
2019-04-23T17:07:36.854Z,18.81
2019-04-23T17:12:46.309Z,18.48
2019-04-23T17:17:48.863Z,18.45
2019-04-23T17:23:27.052Z,18.41
2019-04-23T17:28:24.675Z,18.40
2019-04-23T17:33:38.315Z,18.23
2019-04-23T17:43:59.867Z,18.07
2019-04-23T17:48:57.279Z,17.99
2019-04-23T17:54:32.224Z,17.84
2019-04-23T18:05:06.322Z,17.54
2019-04-23T18:10:24.676Z,17.58
2019-04-23T18:15:15.574Z,17.44
2019-04-23T18:20:52.171Z,17.35
2019-04-23T18:25:59.657Z,17.28
2019-04-23T18:31:12.952Z,17.07
2019-04-23T18:36:19.780Z,17.06
2019-04-23T18:41:29.575Z,17.07
2019-04-23T18:46:53.462Z,16.90
2019-04-23T18:51:49.712Z,16.77
2019-04-23T18:57:32.160Z,16.67
2019-04-23T19:08:08.651Z,16.54
2019-04-23T19:13:11.371Z,16.50
2019-04-23T19:18:22.236Z,16.41
2019-04-23T19:23:34.335Z,16.42
2019-04-23T19:33:56.868Z,16.24
2019-04-23T19:38:57.902Z,16.16
2019-04-23T19:44:01.170Z,16.11
2019-04-23T19:49:09.866Z,16.05
2019-04-23T19:54:28.561Z,16.05
2019-04-23T19:59:32.079Z,15.99
2019-04-23T20:04:42.269Z,15.90
2019-04-23T20:09:51.583Z,15.85
2019-04-23T20:14:52.198Z,15.83
2019-04-23T20:19:54.887Z,15.74
2019-04-23T20:25:39.370Z,15.64
2019-04-23T20:31:05.274Z,15.67
2019-04-23T20:35:39.563Z,15.67
2019-04-23T20:45:58.816Z,15.50
2019-04-23T20:50:56.472Z,15.47
2019-04-23T21:01:46.811Z,15.48
2019-04-23T21:12:04.205Z,15.36
2019-04-23T21:17:05.441Z,15.41
2019-04-23T21:22:20.525Z,15.35
2019-04-23T21:32:53.358Z,15.39
2019-04-23T21:43:16.755Z,15.31
2019-04-23T21:48:34.664Z,15.22
2019-04-23T21:53:25.017Z,15.13
2019-04-23T21:58:48.967Z,15.12
2019-04-23T22:03:52.926Z,15.12
2019-04-23T22:08:52.427Z,15.07
2019-04-23T22:14:05.595Z,15.08
2019-04-23T22:19:10.708Z,15.08
2019-04-23T22:24:08.701Z,14.98
2019-04-23T22:29:18.802Z,14.99
2019-04-23T22:34:22.089Z,14.91
2019-04-23T22:39:32.050Z,14.94
2019-04-23T22:44:56.167Z,14.89
2019-04-23T22:55:13.490Z,14.81
2019-04-23T23:00:30.056Z,14.84
2019-04-23T23:06:08.310Z,14.79
2019-04-23T23:16:05.597Z,14.73
2019-04-23T23:21:06.478Z,14.64
2019-04-23T23:31:22.504Z,14.61
2019-04-23T23:36:40.055Z,14.63
2019-04-23T23:41:40.469Z,14.58
2019-04-23T23:51:57.282Z,14.52
2019-04-23T23:57:06.287Z,14.53
